Time;durP1;ratioP1;P1;durP2;ratioP2;P2;SDS_P1;SDS_P2;PMS_P1;PMS_P2;Temp;Humidity;BMP_temperature;BMP_pressure;BME280_temperature;BME280_humidity;BME280_pressure;Samples;Min_cycle;Max_cycle;Signal;HPM_P1;HPM_P2
2022/06/15 00:02:14;;;;;;;9.60;8.73;;;;;;;11.68;93.85;102096.41;4993545;28;20433;-46
2022/06/15 00:04:44;;;;;;;12.80;9.40;;;;;;;11.68;94.12;102091.06;4993728;28;20433;-49
2022/06/15 00:07:11;;;;;;;12.33;9.60;;;;;;;11.66;93.78;102092.06;4992985;28;20484;-46
2022/06/15 00:09:39;;;;;;;10.33;9.50;;;;;;;11.65;94.02;102086.88;4993624;28;20883;-45
2022/06/15 00:12:08;;;;;;;10.40;9.30;;;;;;;11.65;94.48;102087.72;4993227;28;20438;-47
2022/06/15 00:14:36;;;;;;;12.10;10.53;;;;;;;11.65;94.23;102087.72;4993362;28;20484;-45
2022/06/15 00:17:04;;;;;;;12.20;9.90;;;;;;;11.68;94.70;102091.06;4992871;28;20461;-47
2022/06/15 00:19:32;;;;;;;14.73;10.77;;;;;;;11.66;94.64;102094.72;4993231;28;20966;-48
2022/06/15 00:22:01;;;;;;;15.00;10.77;;;;;;;11.68;94.67;102102.56;4993144;28;20440;-45
2022/06/15 00:24:29;;;;;;;13.50;9.90;;;;;;;11.68;94.66;102100.72;4993179;28;20936;-45
2022/06/15 00:26:57;;;;;;;12.80;9.30;;;;;;;11.67;95.05;102095.56;4992935;28;20485;-46
2022/06/15 00:29:24;;;;;;;11.50;9.47;;;;;;;11.65;94.70;102090.38;4992702;28;20833;-46
2022/06/15 00:31:52;;;;;;;10.73;9.73;;;;;;;11.63;95.16;102105.75;4992789;28;20441;-50
2022/06/15 00:34:20;;;;;;;14.07;10.90;;;;;;;11.61;94.89;102097.09;4993157;28;20433;-46
2022/06/15 00:36:47;;;;;;;12.30;9.40;;;;;;;11.60;95.16;102108.78;4992941;28;20975;-45
2022/06/15 00:39:16;;;;;;;12.03;10.50;;;;;;;11.60;95.46;102100.75;4992470;28;20843;-49
2022/06/15 00:41:44;;;;;;;11.10;10.10;;;;;;;11.62;95.48;102104.09;4992906;28;20438;-45
2022/06/15 00:44:34;;;;;;;11.23;10.10;;;;;;;11.61;95.24;102098.94;4993170;28;20545;-45
2022/06/15 00:47:05;;;;;;;10.70;9.63;;;;;;;11.62;95.30;102097.91;4992635;28;20491;-49
2022/06/15 00:49:38;;;;;;;10.30;9.53;;;;;;;11.62;95.64;102093.41;4992602;28;20829;-47
2022/06/15 00:52:13;;;;;;;11.77;10.37;;;;;;;11.61;95.64;102090.91;4992390;28;20426;-44
2022/06/15 00:54:45;;;;;;;10.27;9.37;;;;;;;11.62;95.62;102092.56;4993010;28;20426;-45
2022/06/15 00:57:13;;;;;;;10.50;9.67;;;;;;;11.63;95.84;102084.38;4992511;28;20456;-51
2022/06/15 00:59:47;;;;;;;12.13;10.43;;;;;;;11.64;95.78;102083.38;4992404;28;20484;-48
2022/06/15 01:02:14;;;;;;;11.17;10.17;;;;;;;11.66;95.71;102086.72;4992402;28;20422;-49
2022/06/15 01:04:46;;;;;;;11.40;10.40;;;;;;;11.66;95.78;102081.38;4992580;28;20430;-45
2022/06/15 01:07:28;;;;;;;12.17;11.07;;;;;;;11.64;95.98;102079.88;4992122;28;20481;-46
2022/06/15 01:10:25;;;;;;;11.03;9.97;;;;;;;11.64;95.78;102071.88;4992660;28;20441;-48
2022/06/15 01:13:07;;;;;;;10.97;9.87;;;;;;;11.63;95.91;102079.03;4991778;28;20446;-48
2022/06/15 01:15:45;;;;;;;13.30;12.03;;;;;;;11.61;96.19;102083.72;4984368;28;20422;-47
2022/06/15 01:18:27;;;;;;;14.40;11.83;;;;;;;11.58;96.27;102081.41;4992081;28;20469;-48
2022/06/15 01:21:08;;;;;;;11.10;9.67;;;;;;;11.55;95.92;102080.91;4992241;28;20429;-47
2022/06/15 01:24:08;;;;;;;9.93;9.13;;;;;;;11.51;96.24;102084.91;4992588;28;20447;-49
2022/06/15 01:27:12;;;;;;;12.47;10.20;;;;;;;11.48;96.24;102087.91;4992382;28;20456;-49
2022/06/15 01:30:01;;;;;;;13.37;12.00;;;;;;;11.45;96.47;102074.91;4992162;28;20441;-47
2022/06/15 01:32:34;;;;;;;12.97;11.50;;;;;;;11.40;96.46;102078.09;4991938;28;20437;-47
2022/06/15 01:35:12;;;;;;;11.63;10.43;;;;;;;11.36;96.45;102074.09;4992417;28;20816;-46
2022/06/15 01:37:46;;;;;;;13.30;11.30;;;;;;;11.32;96.32;102080.75;4991785;28;20488;-46
2022/06/15 01:40:20;;;;;;;12.57;11.20;;;;;;;11.30;96.59;102081.94;4992076;28;20430;-47
2022/06/15 01:42:54;;;;;;;17.10;13.47;;;;;;;11.26;96.59;102085.97;4992476;28;20436;-47
2022/06/15 01:45:29;;;;;;;14.67;12.47;;;;;;;11.20;96.38;102074.09;4992285;28;20799;-47
2022/06/15 01:47:59;;;;;;;12.93;11.83;;;;;;;11.16;96.33;102079.94;4991840;28;20473;-47
2022/06/15 01:50:32;;;;;;;18.67;12.77;;;;;;;11.12;96.36;102076.78;4991916;28;20438;-49
2022/06/15 01:53:03;;;;;;;13.60;12.27;;;;;;;11.08;96.49;102086.09;4992625;28;20439;-49
2022/06/15 01:55:34;;;;;;;14.00;11.00;;;;;;;11.01;96.46;102077.97;4992217;28;20525;-50
2022/06/15 01:58:07;;;;;;;16.80;10.83;;;;;;;10.97;96.53;102076.63;4991897;28;20469;-46
2022/06/15 02:00:37;;;;;;;14.07;11.07;;;;;;;10.94;96.60;102070.78;4991887;28;20919;-47
2022/06/15 02:03:12;;;;;;;15.03;10.53;;;;;;;10.91;96.55;102068.44;4992233;28;20446;-48
2022/06/15 02:05:48;;;;;;;12.63;10.40;;;;;;;10.89;96.65;102078.44;4991987;28;20429;-51
2022/06/15 02:08:22;;;;;;;11.00;10.00;;;;;;;10.88;97.05;102076.78;4991710;28;20485;-46
2022/06/15 02:10:57;;;;;;;14.30;10.73;;;;;;;10.85;96.86;102071.75;4991924;28;20529;-46
2022/06/15 02:13:32;;;;;;;16.93;13.90;;;;;;;10.85;96.90;102077.09;4995645;28;20450;-46
2022/06/15 02:16:05;;;;;;;12.27;10.97;;;;;;;10.82;97.09;102074.75;4995396;28;20492;-47
2022/06/15 02:18:34;;;;;;;16.10;12.03;;;;;;;10.79;96.95;102069.75;4995411;28;20975;-49
2022/06/15 02:21:11;;;;;;;12.43;11.27;;;;;;;10.74;97.20;102064.09;4995620;28;20426;-45
2022/06/15 02:23:41;;;;;;;12.50;11.20;;;;;;;10.72;97.09;102061.56;4995714;28;20426;-48
2022/06/15 02:26:10;;;;;;;15.20;11.67;;;;;;;10.70;97.19;102060.06;4995622;28;20472;-46
2022/06/15 02:28:44;;;;;;;13.90;12.50;;;;;;;10.69;97.04;102069.94;4994995;28;20478;-46
2022/06/15 02:31:13;;;;;;;15.77;11.83;;;;;;;10.66;97.19;102061.44;4993295;28;20437;-47
2022/06/15 02:33:48;;;;;;;13.07;11.67;;;;;;;10.63;97.16;102064.44;4995430;28;20442;-45
2022/06/15 02:36:16;;;;;;;13.83;12.43;;;;;;;10.61;97.32;102061.06;4995361;28;20453;-48
2022/06/15 02:38:46;;;;;;;13.53;12.13;;;;;;;10.57;97.36;102067.75;4994866;28;20458;-48
2022/06/15 02:41:14;;;;;;;13.20;11.80;;;;;;;10.54;97.23;102072.38;4995119;28;20803;-47
2022/06/15 02:43:43;;;;;;;12.70;11.40;;;;;;;10.50;97.40;102073.75;4995203;28;20434;-48
2022/06/15 02:46:14;;;;;;;15.63;11.93;;;;;;;10.48;97.24;102073.03;4994994;28;21015;-47
2022/06/15 02:48:42;;;;;;;17.53;13.07;;;;;;;10.47;97.45;102074.06;4994615;28;20848;-49
2022/06/15 02:51:15;;;;;;;14.20;11.50;;;;;;;10.45;97.32;102076.03;4994765;28;20539;-45
2022/06/15 02:53:44;;;;;;;16.30;13.17;;;;;;;10.44;97.51;102077.06;4995216;28;20444;-47
2022/06/15 02:56:14;;;;;;;14.03;12.63;;;;;;;10.43;97.55;102071.88;4994811;28;21002;-45
2022/06/15 02:58:45;;;;;;;13.77;12.43;;;;;;;10.42;97.60;102079.03;4994451;28;20480;-46
2022/06/15 03:01:14;;;;;;;13.67;12.37;;;;;;;10.43;97.49;102075.38;4994460;28;20434;-46
2022/06/15 03:03:43;;;;;;;12.60;11.27;;;;;;;10.43;97.38;102079.88;4993693;28;20508;-46
2022/06/15 03:06:13;;;;;;;13.53;12.23;;;;;;;10.43;97.57;102078.03;4994450;28;20458;-46
2022/06/15 03:08:41;;;;;;;12.93;11.70;;;;;;;10.43;97.88;102083.38;4994144;28;20485;-48
2022/06/15 03:11:09;;;;;;;13.80;10.93;;;;;;;10.43;97.54;102079.88;4994478;28;20437;-46
2022/06/15 03:13:37;;;;;;;18.03;13.53;;;;;;;10.45;97.64;102084.03;4994454;28;20445;-47
2022/06/15 03:16:06;;;;;;;12.53;11.43;;;;;;;10.49;97.69;102084.56;4994409;28;20473;-48
2022/06/15 03:18:35;;;;;;;13.50;11.80;;;;;;;10.54;97.67;102077.72;4993810;28;20466;-50
2022/06/15 03:21:03;;;;;;;12.77;11.47;;;;;;;10.61;97.76;102080.56;4994353;28;20440;-45
2022/06/15 03:23:33;;;;;;;15.33;13.10;;;;;;;10.69;97.56;102074.44;4994050;28;20960;-49
2022/06/15 03:26:03;;;;;;;14.23;11.87;;;;;;;10.91;97.68;102071.94;4994390;28;20454;-51
2022/06/15 03:28:31;;;;;;;13.83;11.70;;;;;;;11.34;97.10;102070.75;4993683;28;20480;-46
2022/06/15 03:30:58;;;;;;;12.07;10.77;;;;;;;12.10;95.04;102068.38;4993743;28;20442;-46
2022/06/15 03:33:26;;;;;;;12.70;11.40;;;;;;;12.55;96.37;102070.28;4992903;28;20800;-46
2022/06/15 03:35:57;;;;;;;18.00;13.50;;;;;;;12.52;97.56;102073.31;4994187;28;20851;-45
2022/06/15 03:38:25;;;;;;;11.33;10.13;;;;;;;12.51;97.24;102074.34;4993721;28;20468;-46
2022/06/15 03:40:53;;;;;;;13.00;11.93;;;;;;;12.51;97.17;102071.69;4993704;28;20811;-46
2022/06/15 03:43:20;;;;;;;12.53;11.23;;;;;;;12.52;96.63;102069.81;4994239;28;20434;-47
2022/06/15 03:45:48;;;;;;;14.40;11.50;;;;;;;12.56;96.16;102071.97;4993998;28;20454;-46
2022/06/15 03:48:16;;;;;;;14.00;11.90;;;;;;;12.60;95.93;102069.78;4993371;28;20466;-45
2022/06/15 03:50:44;;;;;;;15.20;11.17;;;;;;;12.71;96.12;102067.50;4993731;28;20442;-46
2022/06/15 03:53:14;;;;;;;13.50;11.37;;;;;;;12.89;95.98;102069.06;4993907;28;20434;-44
2022/06/15 03:55:43;;;;;;;12.07;10.90;;;;;;;13.11;96.23;102066.38;4994241;28;20458;-45
2022/06/15 03:58:12;;;;;;;10.47;9.57;;;;;;;13.27;95.87;102065.41;4993295;28;20496;-47
2022/06/15 04:00:41;;;;;;;11.73;10.60;;;;;;;13.42;95.66;102062.72;4993513;28;20430;-46
2022/06/15 04:03:08;;;;;;;11.90;10.70;;;;;;;13.48;95.09;102076.25;4993552;28;20939;-46
2022/06/15 04:05:40;;;;;;;11.67;10.33;;;;;;;13.52;94.35;102061.47;4993525;28;20437;-45
2022/06/15 04:11:00;;;;;;;11.43;10.33;;;;;;;13.66;93.42;102057.97;4993418;28;20444;-47
2022/06/15 04:13:28;;;;;;;13.73;9.70;;;;;;;13.68;93.32;102060.44;4993395;28;20434;-45
2022/06/15 04:15:56;;;;;;;10.27;9.37;;;;;;;13.82;93.39;102064.97;4993215;28;20863;-46
2022/06/15 04:18:24;;;;;;;15.03;9.77;;;;;;;13.87;92.69;102067.94;4992865;28;20468;-48
2022/06/15 04:20:52;;;;;;;14.57;9.87;;;;;;;13.92;92.53;102065.50;4993047;28;20438;-46
2022/06/15 04:23:22;;;;;;;11.90;9.93;;;;;;;14.00;92.49;102059.22;4993507;28;20442;-46
2022/06/15 04:25:52;;;;;;;11.13;10.03;;;;;;;14.09;92.07;102063.47;4992950;28;20454;-47
2022/06/15 04:28:32;;;;;;;10.73;9.83;;;;;;;14.87;95.24;102061.66;4992643;28;20498;-46
2022/06/15 04:30:59;;;;;;;10.33;8.80;;;;;;;16.56;96.44;102057.53;5016099;23;20499;-45
2022/06/15 04:33:28;;;;;;;12.40;9.57;;;;;;;18.07;95.86;102064.69;5011264;28;20433;-45
2022/06/15 04:35:56;;;;;;;9.33;8.50;;;;;;;19.34;88.90;102059.91;5012456;28;20439;-42
2022/06/15 04:38:26;;;;;;;8.20;7.50;;;;;;;20.58;83.26;102062.25;5012117;28;21000;-43
2022/06/15 04:40:53;;;;;;;10.20;9.50;;;;;;;21.69;75.70;102054.09;5012298;28;20448;-44
2022/06/15 04:43:21;;;;;;;9.07;8.33;;;;;;;22.66;70.90;102053.13;5012435;28;20434;-44
2022/06/15 04:45:49;;;;;;;8.93;8.23;;;;;;;23.49;65.36;102050.44;5012764;28;20443;-43
2022/06/15 04:48:17;;;;;;;8.47;7.80;;;;;;;24.32;62.72;102057.50;5012159;28;20474;-46
2022/06/15 04:50:44;;;;;;;10.53;9.63;;;;;;;25.01;59.09;102060.34;5012242;28;20846;-44
2022/06/15 04:53:12;;;;;;;8.87;8.20;;;;;;;25.62;57.49;102062.47;5012648;28;20440;-50
2022/06/15 04:55:41;;;;;;;8.80;8.10;;;;;;;26.06;53.83;102060.19;5012376;28;20436;-44
2022/06/15 04:58:09;;;;;;;8.97;8.37;;;;;;;26.61;52.44;102054.06;5011790;28;20845;-49
2022/06/15 05:00:41;;;;;;;8.37;7.83;;;;;;;27.16;51.60;102055.19;5012337;28;20428;-43
2022/06/15 05:03:08;;;;;;;8.67;8.07;;;;;;;27.53;47.29;102055.72;5012436;28;20440;-44
2022/06/15 05:05:36;;;;;;;8.70;7.90;;;;;;;27.66;48.35;102049.63;5012280;28;20432;-50
2022/06/15 05:08:05;;;;;;;8.90;8.10;;;;;;;27.79;47.04;102049.06;5011733;28;20464;-44
2022/06/15 05:10:33;;;;;;;8.10;7.60;;;;;;;28.10;46.80;102049.78;5011619;28;20547;-48
2022/06/15 05:13:02;;;;;;;9.07;7.50;;;;;;;28.44;44.71;102050.66;5012334;28;20436;-45
2022/06/15 05:15:29;;;;;;;7.30;6.70;;;;;;;28.72;43.72;102049.13;5012302;28;20434;-45
2022/06/15 05:18:02;;;;;;;7.57;6.77;;;;;;;28.97;42.18;102051.66;5011927;28;20464;-44
2022/06/15 05:20:30;;;;;;;6.83;6.23;;;;;;;29.19;41.32;102051.19;5011881;28;20197;-44
2022/06/15 05:22:57;;;;;;;6.50;6.00;;;;;;;29.24;40.50;102050.38;5012049;28;20201;-45
2022/06/15 05:25:26;;;;;;;5.37;5.03;;;;;;;29.44;40.16;102053.72;5012207;28;20540;-47
2022/06/15 05:27:54;;;;;;;7.03;5.23;;;;;;;29.67;41.05;102054.81;5011622;28;20233;-45
2022/06/15 05:30:23;;;;;;;6.13;5.53;;;;;;;29.59;38.33;102061.78;5011552;28;20229;-45
2022/06/15 05:32:51;;;;;;;6.80;5.40;;;;;;;29.65;39.90;102059.81;5004545;28;20205;-45
2022/06/15 05:35:18;;;;;;;5.93;5.37;;;;;;;29.39;34.62;102058.44;5009582;28;20200;-44
2022/06/15 05:37:46;;;;;;;6.10;5.17;;;;;;;29.78;38.29;102050.03;5011372;28;20599;-44
2022/06/15 05:40:14;;;;;;;6.03;5.03;;;;;;;29.75;38.66;102056.13;5012041;28;20189;-45
2022/06/15 05:42:42;;;;;;;4.90;4.30;;;;;;;29.91;38.32;102055.66;5011861;28;20229;-46
2022/06/15 05:45:10;;;;;;;5.87;5.00;;;;;;;30.17;37.96;102053.38;5012447;28;20197;-46
2022/06/15 05:47:39;;;;;;;6.40;4.90;;;;;;;29.96;36.94;102058.34;5015465;28;20275;-44
2022/06/15 05:50:09;;;;;;;6.37;4.27;;;;;;;30.08;37.17;102055.97;5015587;28;20240;-45
2022/06/15 05:52:39;;;;;;;5.77;4.43;;;;;;;29.90;34.61;102045.75;5015760;28;20722;-44
2022/06/15 05:55:08;;;;;;;5.57;4.23;;;;;;;29.38;33.58;102057.63;5015724;28;20204;-44
2022/06/15 05:57:36;;;;;;;4.47;4.07;;;;;;;29.20;35.67;102052.00;5015289;28;20225;-44
2022/06/15 06:00:05;;;;;;;5.87;4.53;;;;;;;28.08;34.38;102060.19;5015634;28;20212;-49
2022/06/15 06:02:33;;;;;;;4.23;3.93;;;;;;;28.20;34.71;102059.84;5015204;28;20217;-44
2022/06/15 06:05:02;;;;;;;5.90;4.87;;;;;;;27.98;37.03;102063.78;5015441;28;20596;-44
2022/06/15 06:07:29;;;;;;;9.37;4.07;;;;;;;27.81;36.25;102052.31;5015228;28;20583;-44
2022/06/15 06:09:57;;;;;;;4.47;4.03;;;;;;;28.06;37.03;102056.94;5015438;28;20226;-45
2022/06/15 06:12:24;;;;;;;4.50;3.70;;;;;;;28.00;34.59;102063.50;5015216;28;20221;-46
2022/06/15 06:14:53;;;;;;;5.07;4.27;;;;;;;27.81;37.28;102065.22;5015372;28;20201;-47
2022/06/15 06:17:21;;;;;;;6.00;4.17;;;;;;;27.72;35.10;102072.38;5015368;28;20228;-44
2022/06/15 06:19:49;;;;;;;6.57;4.87;;;;;;;27.70;36.27;102074.56;5015419;28;20204;-46
2022/06/15 06:22:18;;;;;;;4.53;4.10;;;;;;;28.22;37.38;102066.72;5014845;28;20710;-50
2022/06/15 06:24:49;;;;;;;4.43;3.37;;;;;;;28.05;36.35;102068.19;5015353;28;20205;-47
2022/06/15 06:27:17;;;;;;;7.80;4.43;;;;;;;28.28;35.50;102067.50;5014749;28;20574;-46
2022/06/15 06:29:45;;;;;;;4.40;4.00;;;;;;;27.66;36.22;102081.72;5015104;28;20614;-46
2022/06/15 06:32:14;;;;;;;6.57;3.77;;;;;;;27.44;35.73;102079.31;5012289;28;20598;-45
2022/06/15 06:34:42;;;;;;;4.00;3.70;;;;;;;26.84;37.25;102078.22;5007802;28;20197;-46
2022/06/15 06:37:13;;;;;;;4.43;3.50;;;;;;;27.32;36.92;102085.06;5014519;28;20570;-45
2022/06/15 06:39:42;;;;;;;5.57;3.93;;;;;;;27.02;37.08;102076.03;5014884;28;20197;-46
2022/06/15 06:42:11;;;;;;;8.13;4.10;;;;;;;27.38;37.27;102083.94;5014422;28;20728;-46
2022/06/15 06:44:39;;;;;;;7.60;4.30;;;;;;;27.67;35.67;102075.97;5014857;28;20204;-48
2022/06/15 06:47:08;;;;;;;5.20;4.43;;;;;;;27.24;36.66;102087.53;5014654;28;20193;-43
2022/06/15 06:49:37;;;;;;;8.53;4.90;;;;;;;27.12;37.75;102078.78;5014678;28;20683;-49
2022/06/15 06:52:05;;;;;;;4.37;3.97;;;;;;;27.14;37.13;102084.78;5014277;28;20221;-47
2022/06/15 06:54:33;;;;;;;8.73;4.20;;;;;;;27.10;36.58;102087.25;5014410;28;20202;-45
2022/06/15 06:57:02;;;;;;;4.87;4.47;;;;;;;27.10;37.39;102090.00;5013422;28;20516;-46
2022/06/15 06:59:29;;;;;;;4.60;3.80;;;;;;;27.00;37.38;102086.44;5014555;28;20197;-44
2022/06/15 07:01:57;;;;;;;5.90;4.50;;;;;;;26.62;38.20;102091.28;5014335;28;20209;-49
2022/06/15 07:04:25;;;;;;;4.63;3.73;;;;;;;27.83;36.04;102087.69;5014494;28;20205;-46
2022/06/15 07:06:56;;;;;;;5.87;3.47;;;;;;;27.70;34.25;102091.03;5014388;28;20206;-48
2022/06/15 07:09:23;;;;;;;9.03;4.30;;;;;;;28.05;34.22;102087.38;5013973;28;20650;-46
2022/06/15 07:11:51;;;;;;;4.50;4.10;;;;;;;28.22;34.69;102085.94;5013851;28;20224;-46
2022/06/15 07:14:20;;;;;;;6.67;3.73;;;;;;;28.01;34.33;102085.19;5014179;28;20204;-47
2022/06/15 07:16:47;;;;;;;5.43;3.13;;;;;;;28.46;34.58;102092.34;5014531;28;20193;-45
2022/06/15 07:19:15;;;;;;;3.57;3.23;;;;;;;29.07;34.65;102092.78;5013702;28;20252;-46
2022/06/15 07:21:43;;;;;;;3.80;3.30;;;;;;;28.48;32.71;102090.16;5013660;28;20638;-44
2022/06/15 07:24:10;;;;;;;3.80;3.50;;;;;;;27.29;35.34;102101.22;5014230;28;20201;-46
2022/06/15 07:26:42;;;;;;;5.30;3.80;;;;;;;26.90;35.58;102095.47;5014040;28;20202;-46
2022/06/15 07:29:12;;;;;;;5.87;3.90;;;;;;;26.66;36.50;102102.50;5013494;28;20229;-52
2022/06/15 07:31:46;;;;;;;4.70;3.60;;;;;;;26.12;35.17;102097.41;5011489;28;20701;-47
2022/06/15 07:34:14;;;;;;;4.60;3.87;;;;;;;25.65;36.99;102100.19;5005526;28;20198;-47
2022/06/15 07:36:46;;;;;;;4.33;3.93;;;;;;;26.55;35.82;102098.94;5014173;28;20193;-47
2022/06/15 07:39:16;;;;;;;6.83;3.90;;;;;;;26.66;36.40;102094.31;5013271;28;20595;-46
2022/06/15 07:41:44;;;;;;;4.53;4.13;;;;;;;27.15;35.58;102098.19;5013389;28;20718;-44
2022/06/15 07:44:12;;;;;;;4.30;3.90;;;;;;;26.63;35.07;102101.16;5013788;28;20702;-45
2022/06/15 07:46:42;;;;;;;4.50;3.83;;;;;;;26.12;34.88;102096.59;5013461;28;20490;-44
2022/06/15 07:51:58;;;;;;;5.03;4.30;;;;;;;26.16;35.58;102103.19;5013049;28;20997;-44
2022/06/15 07:54:26;;;;;;;5.03;3.90;;;;;;;25.98;36.41;102096.25;5013408;28;20436;-45
2022/06/15 07:56:55;;;;;;;4.53;4.00;;;;;;;26.51;35.43;102097.84;5013477;28;20198;-44
2022/06/15 07:59:24;;;;;;;3.70;3.30;;;;;;;27.23;35.74;102102.31;5012855;28;20356;-47
2022/06/15 08:01:54;;;;;;;4.33;3.93;;;;;;;27.17;33.13;102097.94;5013158;28;20213;-49
2022/06/15 08:04:22;;;;;;;4.40;4.03;;;;;;;26.68;33.64;102092.94;5013447;28;20447;-48
2022/06/15 08:06:51;;;;;;;4.77;4.07;;;;;;;26.15;35.02;102094.16;5013164;28;20200;-45
2022/06/15 08:09:19;;;;;;;5.33;4.00;;;;;;;25.98;35.69;102099.00;5012615;28;20476;-48
2022/06/15 08:14:29;;;;;;;6.90;4.70;;;;;;;24.13;36.46;102095.16;5012395;28;20436;-47
2022/06/15 08:16:59;;;;;;;5.37;4.57;;;;;;;23.71;39.29;102095.94;5013173;28;20433;-44
2022/06/15 08:19:27;;;;;;;5.07;4.27;;;;;;;23.67;39.88;102098.34;5012772;28;20444;-47
2022/06/15 08:21:55;;;;;;;4.77;4.20;;;;;;;23.39;39.41;102099.28;5012642;28;20449;-49
2022/06/15 08:24:24;;;;;;;4.43;4.03;;;;;;;22.98;39.57;102102.38;5012829;28;20922;-48
2022/06/15 08:26:51;;;;;;;3.97;3.67;;;;;;;23.55;38.95;102092.16;5013033;28;20825;-44
2022/06/15 08:29:20;;;;;;;5.07;4.47;;;;;;;23.96;39.51;102097.09;5012358;28;20460;-46
2022/06/15 08:31:48;;;;;;;4.90;4.47;;;;;;;23.73;39.41;102097.31;5010364;28;20476;-46
2022/06/15 08:34:17;;;;;;;5.03;3.70;;;;;;;23.77;38.93;102098.50;5004571;28;20437;-43
2022/06/15 08:36:45;;;;;;;4.77;3.83;;;;;;;23.21;37.77;102106.84;5012557;28;20458;-44
2022/06/15 08:39:13;;;;;;;4.50;4.10;;;;;;;22.47;40.65;102101.41;5012354;28;20835;-45
2022/06/15 08:41:58;;;;;;;4.93;4.43;;;;;;;21.94;41.30;102098.16;5012290;28;20479;-47
2022/06/15 08:44:35;;;;;;;10.10;4.47;;;;;;;21.95;42.78;102091.66;5012711;28;20428;-43
2022/06/15 08:47:10;;;;;;;6.70;4.37;;;;;;;21.23;46.28;102092.97;5011898;28;20794;-45
2022/06/15 08:49:48;;;;;;;5.73;3.97;;;;;;;20.51;47.17;102091.31;5012731;28;20828;-46
2022/06/15 08:52:19;;;;;;;9.90;4.97;;;;;;;20.61;47.66;102091.59;5012111;28;20475;-44
2022/06/15 08:54:55;;;;;;;4.13;3.93;;;;;;;20.70;47.38;102098.31;5012717;28;20435;-46
2022/06/15 08:57:32;;;;;;;7.43;4.20;;;;;;;20.91;46.58;102090.50;5011965;28;20456;-49
2022/06/15 09:00:07;;;;;;;5.57;4.60;;;;;;;20.80;49.88;102083.16;5012318;28;20435;-44
2022/06/15 09:02:41;;;;;;;5.80;4.60;;;;;;;21.01;48.39;102095.34;5012188;28;20460;-46
2022/06/15 09:05:26;;;;;;;5.90;4.93;;;;;;;20.68;46.69;102093.16;5012432;28;20432;-47
2022/06/15 09:08:18;;;;;;;4.30;3.90;;;;;;;20.81;46.61;102086.72;5011914;28;20464;-49
2022/06/15 09:10:51;;;;;;;5.57;4.30;;;;;;;21.62;44.87;102084.13;5011885;28;20949;-48
2022/06/15 09:13:32;;;;;;;6.97;4.43;;;;;;;21.21;45.54;102089.63;5012201;28;20483;-49
2022/06/15 09:16:09;;;;;;;4.43;4.03;;;;;;;20.54;46.53;102093.56;5012151;28;20439;-45
2022/06/15 09:18:41;;;;;;;7.33;4.00;;;;;;;20.47;45.96;102093.66;5011745;28;20467;-45
2022/06/15 09:21:16;;;;;;;4.57;4.27;;;;;;;20.77;45.90;102090.94;5011533;28;20453;-46
2022/06/15 09:23:50;;;;;;;6.53;4.30;;;;;;;20.89;45.21;102095.34;5012138;28;20483;-44
2022/06/15 09:26:22;;;;;;;8.57;5.20;;;;;;;21.01;45.16;102097.25;5012069;28;20459;-49
2022/06/15 09:28:56;;;;;;;5.43;4.50;;;;;;;21.05;44.21;102093.84;5011604;28;20460;-44
2022/06/15 09:31:27;;;;;;;4.63;4.13;;;;;;;21.95;43.86;102088.94;5009494;28;20542;-44
2022/06/15 09:33:59;;;;;;;4.23;4.03;;;;;;;22.03;41.10;102092.13;5003857;28;20499;-46
2022/06/15 09:36:33;;;;;;;3.30;3.10;;;;;;;22.55;41.65;102082.00;5011926;28;20440;-44
2022/06/15 09:39:01;;;;;;;5.03;3.40;;;;;;;22.66;39.25;102076.78;5011274;28;20474;-48
2022/06/15 09:41:36;;;;;;;4.40;3.23;;;;;;;22.64;39.37;102082.41;5011739;28;20460;-49
2022/06/15 09:44:14;;;;;;;6.10;3.27;;;;;;;23.07;37.82;102073.69;5011999;28;20656;-43
2022/06/15 09:47:11;;;;;;;3.90;3.33;;;;;;;22.58;39.41;102077.94;5011584;28;20810;-47
2022/06/15 09:49:49;;;;;;;4.17;3.57;;;;;;;21.43;40.28;102077.16;5011687;28;20433;-48
2022/06/15 09:52:27;;;;;;;7.73;3.83;;;;;;;21.77;40.94;102079.03;5011494;28;20480;-47
2022/06/15 09:55:06;;;;;;;3.43;3.13;;;;;;;22.34;39.73;102066.34;5011941;28;20439;-44
2022/06/15 09:57:33;;;;;;;3.30;3.10;;;;;;;22.85;38.14;102064.63;5011444;28;20460;-46
2022/06/15 10:00:03;;;;;;;5.00;3.33;;;;;;;22.63;38.77;102069.91;5011462;28;20433;-50
2022/06/15 10:02:34;;;;;;;4.70;2.90;;;;;;;22.40;37.70;102067.31;5011453;28;20975;-47
2022/06/15 10:05:05;;;;;;;3.63;3.13;;;;;;;22.42;41.28;102076.88;5011843;28;20440;-44
2022/06/15 10:07:37;;;;;;;3.43;3.13;;;;;;;22.60;39.60;102062.25;5011478;28;20456;-44
2022/06/15 10:10:16;;;;;;;3.20;3.00;;;;;;;22.34;39.89;102063.63;5011705;28;20523;-46
2022/06/15 10:12:57;;;;;;;3.83;3.60;;;;;;;22.26;40.02;102055.06;5011459;28;20480;-45
2022/06/15 10:15:31;;;;;;;3.23;3.00;;;;;;;22.45;39.40;102061.97;5011745;28;20476;-44
2022/06/15 10:18:03;;;;;;;4.07;3.57;;;;;;;22.12;40.45;102062.69;5011223;28;20471;-44
2022/06/15 10:20:34;;;;;;;5.10;3.27;;;;;;;21.78;39.77;102058.94;5011288;28;20949;-43
2022/06/15 10:23:06;;;;;;;3.30;2.70;;;;;;;21.32;39.67;102069.84;5011708;28;20439;-44
2022/06/15 10:25:37;;;;;;;2.73;2.53;;;;;;;21.28;39.99;102064.06;5011704;28;20438;-46
2022/06/15 10:28:13;;;;;;;2.90;2.70;;;;;;;21.74;41.08;102063.22;5010933;28;20459;-46
2022/06/15 10:30:53;;;;;;;4.10;3.70;;;;;;;22.14;36.83;102062.41;5010992;28;21001;-44
2022/06/15 10:33:20;;;;;;;2.70;2.60;;;;;;;22.21;37.50;102055.78;5003056;28;20473;-44
2022/06/15 10:35:52;;;;;;;3.93;3.20;;;;;;;22.44;36.32;102061.13;5015069;28;20432;-44
2022/06/15 10:38:22;;;;;;;4.17;3.77;;;;;;;22.64;37.84;102055.22;5014519;28;20460;-43
2022/06/15 10:40:58;;;;;;;3.23;2.83;;;;;;;22.84;35.86;102054.81;5014621;28;20456;-43
2022/06/15 10:43:30;;;;;;;3.93;2.70;;;;;;;22.76;35.85;102047.06;5014937;28;20439;-46
2022/06/15 10:46:01;;;;;;;3.93;2.60;;;;;;;23.04;36.46;102053.25;5015032;28;20532;-44
2022/06/15 10:48:34;;;;;;;6.90;2.90;;;;;;;23.75;37.01;102056.22;5014096;28;20472;-45
2022/06/15 10:51:06;;;;;;;3.23;2.90;;;;;;;23.64;33.88;102044.38;5014477;28;20445;-47
2022/06/15 10:53:42;;;;;;;2.97;2.67;;;;;;;24.46;34.41;102036.91;5014527;28;20572;-43
2022/06/15 11:02:09;;;;;;;3.10;2.70;;;;;;;25.05;31.71;102032.31;5014278;28;20449;-46
2022/06/15 11:04:53;;;;;;;2.90;2.70;;;;;;;25.29;34.46;102035.47;5014292;28;20455;-47
2022/06/15 11:07:31;;;;;;;3.63;2.70;;;;;;;25.55;30.68;102034.56;5014138;28;20467;-45
2022/06/15 11:10:20;;;;;;;6.70;3.03;;;;;;;25.80;32.16;102034.69;5014323;28;20431;-48
2022/06/15 11:12:51;;;;;;;3.60;2.67;;;;;;;25.97;30.03;102036.38;5014251;28;20487;-44
2022/06/15 11:18:36;;;;;;;3.37;3.00;;;;;;;26.59;30.58;102026.16;4983605;28;20475;-45
2022/06/15 11:21:09;;;;;;;3.30;3.10;;;;;;;26.45;30.11;102032.44;5014136;28;20810;-45
2022/06/15 11:23:47;;;;;;;2.63;2.43;;;;;;;26.62;30.82;102025.63;5014317;28;20520;-47
2022/06/15 11:29:21;;;;;;;6.87;2.90;;;;;;;25.65;30.27;102023.69;5013484;28;20552;-45
2022/06/15 11:32:08;;;;;;;2.83;2.50;;;;;;;25.68;30.93;102011.41;5011472;28;20465;-46
2022/06/15 11:34:41;;;;;;;2.83;2.63;;;;;;;26.10;30.04;102011.28;4997781;28;20502;-44
2022/06/15 11:37:15;;;;;;;5.30;3.10;;;;;;;25.92;32.34;102012.59;5013331;28;20960;-44
2022/06/15 11:39:49;;;;;;;3.30;3.00;;;;;;;25.46;31.51;102010.69;5013803;28;20439;-47
2022/06/15 11:42:18;;;;;;;3.33;3.07;;;;;;;24.76;31.96;102011.81;5013329;28;20461;-48
2022/06/15 11:44:46;;;;;;;2.90;2.60;;;;;;;25.02;32.72;102007.44;5013567;28;20523;-44
2022/06/15 11:47:27;;;;;;;3.00;2.80;;;;;;;24.45;33.84;102009.91;5013282;28;20433;-45
2022/06/15 11:50:12;;;;;;;2.70;2.60;;;;;;;24.00;34.46;102007.50;5013774;28;20864;-48
2022/06/15 11:52:53;;;;;;;3.27;2.80;;;;;;;24.24;33.66;102011.63;5013341;28;20460;-44
2022/06/15 11:55:33;;;;;;;2.83;2.30;;;;;;;24.17;34.87;102011.81;5013653;28;20431;-43
2022/06/15 11:58:26;;;;;;;2.57;2.37;;;;;;;24.42;32.44;101999.53;5013061;28;20471;-45
2022/06/15 12:01:02;;;;;;;3.87;2.73;;;;;;;24.57;32.87;102003.22;5013037;28;20787;-46